| time (UTC) | temp C | wind direction | speed KPH | gust KPH | rain 1hr cm | rain 24hr cm | rain mn cm | humidity % | barometer mb |
| 20260509201422 | 37 | 203 | 3.2 | 6.4 | 0.00 | 0.00 | 0.00 | 29 | 1002.7 |
| 20260509200922 | 37 | 203 | 1.6 | 3.2 | 0.00 | 0.00 | 0.00 | 30 | 1002.7 |
| 20260509200421 | 36 | 203 | 1.6 | 3.2 | 0.00 | 0.00 | 0.00 | 33 | 1002.4 |
| 20260509195923 | 36 | 180 | 4.8 | 8.0 | 0.00 | 0.00 | 0.00 | 33 | 1002.7 |
| 20260509195422 | 35 | 225 | 4.8 | 6.4 | 0.00 | 0.00 | 0.00 | 31 | 1002.7 |
| 20260509194921 | 34 | 203 | 1.6 | 3.2 | 0.00 | 0.00 | 0.00 | 36 | 1002.7 |
| 20260509194228 | 36 | 180 | 4.8 | 6.4 | 0.00 | 0.00 | 0.00 | 34 | 1003.0 |
| 20260509193422 | 35 | 248 | 1.6 | 3.2 | 0.00 | 0.00 | 0.00 | 35 | 1003.0 |
| 20260509192924 | 34 | 203 | 1.6 | 3.2 | 0.00 | 0.00 | 0.00 | 36 | 1003.0 |
| 20260509192421 | 33 | 248 | 6.4 | 8.0 | 0.00 | 0.00 | 0.00 | 38 | 1003.0 |
| 20260509191922 | 34 | 248 | 4.8 | 8.0 | 0.00 | 0.00 | 0.00 | 40 | 1003.0 |
| 20260509191421 | 35 | 248 | 4.8 | 8.0 | 0.00 | 0.00 | 0.00 | 40 | 1003.0 |
| 20260509190921 | 34 | 225 | 3.2 | 4.8 | 0.00 | 0.00 | 0.00 | 41 | 1003.0 |
| 20260509190422 | 33 | 248 | 9.7 | 11.3 | 0.00 | 0.00 | 0.00 | 39 | 1003.0 |
| 20260509185921 | 33 | 248 | 0.0 | 1.6 | 0.00 | 0.00 | 0.00 | 39 | 1003.0 |
| 20260509185421 | 34 | 180 | 4.8 | 6.4 | 0.00 | 0.00 | 0.00 | 40 | 1003.0 |
| 20260509184921 | 33 | 180 | 3.2 | 3.2 | 0.00 | 0.00 | 0.00 | 39 | 1003.0 |
| 20260509184421 | 33 | 225 | 1.6 | 3.2 | 0.00 | 0.00 | 0.00 | 38 | 1003.0 |
| 20260509183922 | 33 | 248 | 6.4 | 8.0 | 0.00 | 0.00 | 0.00 | 39 | 1003.0 |
| 20260509183422 | 33 | 180 | 4.8 | 8.0 | 0.00 | 0.00 | 0.00 | 39 | 1003.0 |
| 20260509182921 | 32 | 248 | 3.2 | 6.4 | 0.00 | 0.00 | 0.00 | 43 | 1003.0 |
| 20260509182421 | 32 | 248 | 4.8 | 8.0 | 0.00 | 0.00 | 0.00 | 44 | 1003.0 |
| 20260509181922 | 33 | 225 | 4.8 | 8.0 | 0.00 | 0.00 | 0.00 | 45 | 1003.0 |
| 20260509181421 | 32 | 203 | 3.2 | 4.8 | 0.00 | 0.00 | 0.00 | 45 | 1003.0 |
| 20260509180922 | 32 | 203 | 3.2 | 4.8 | 0.00 | 0.00 | 0.00 | 48 | 1003.4 |
| 20260509180421 | 32 | 248 | 3.2 | 4.8 | 0.00 | 0.00 | 0.00 | 44 | 1003.4 |
| 20260509175922 | 33 | 225 | 1.6 | 3.2 | 0.00 | 0.00 | 0.00 | 43 | 1003.4 |
| 20260509175421 | 32 | 180 | 4.8 | 6.4 | 0.00 | 0.00 | 0.00 | 48 | 1003.4 |
| 20260509174921 | 32 | 248 | 6.4 | 8.0 | 0.00 | 0.00 | 0.00 | 45 | 1003.4 |
| 20260509174421 | 31 | 180 | 3.2 | 4.8 | 0.00 | 0.00 | 0.00 | 48 | 1003.4 |
| 20260509173922 | 31 | 248 | 3.2 | 4.8 | 0.00 | 0.00 | 0.00 | 50 | 1003.4 |
| 20260509173421 | 32 | 203 | 8.0 | 8.0 | 0.00 | 0.00 | 0.00 | 47 | 1003.7 |
| 20260509172922 | 31 | 203 | 4.8 | 6.4 | 0.00 | 0.00 | 0.00 | 46 | 1003.7 |
| 20260509172421 | 31 | 203 | 4.8 | 6.4 | 0.00 | 0.00 | 0.00 | 48 | 1003.7 |
| 20260509171922 | 32 | 225 | 4.8 | 6.4 | 0.00 | 0.00 | 0.00 | 47 | 1003.7 |
| 20260509171421 | 31 | 248 | 3.2 | 3.2 | 0.00 | 0.00 | 0.00 | 50 | 1003.7 |
| 20260509170922 | 30 | 248 | 8.0 | 9.7 | 0.00 | 0.00 | 0.00 | 50 | 1004.1 |
| 20260509170423 | 30 | 203 | 9.7 | 14.5 | 0.00 | 0.00 | 0.00 | 47 | 1004.1 |
| 20260509165921 | 30 | 248 | 4.8 | 6.4 | 0.00 | 0.00 | 0.00 | 50 | 1003.7 |
| 20260509165422 | 30 | 248 | 8.0 | 9.7 | 0.00 | 0.00 | 0.00 | 48 | 1004.1 |
| 20260509164922 | 30 | 248 | 9.7 | 12.9 | 0.00 | 0.00 | 0.00 | 46 | 1004.1 |
| 20260509164421 | 30 | 203 | 6.4 | 8.0 | 0.00 | 0.00 | 0.00 | 46 | 1004.1 |
| 20260509163921 | 31 | 248 | 8.0 | 11.3 | 0.00 | 0.00 | 0.00 | 47 | 1004.1 |
| 20260509163422 | 30 | 248 | 6.4 | 8.0 | 0.00 | 0.00 | 0.00 | 47 | 1004.1 |
| 20260509162923 | 30 | 248 | 3.2 | 3.2 | 0.00 | 0.00 | 0.00 | 50 | 1004.1 |
| 20260509162421 | 30 | 225 | 1.6 | 3.2 | 0.00 | 0.00 | 0.00 | 48 | 1004.1 |
| 20260509161921 | 30 | 203 | 1.6 | 3.2 | 0.00 | 0.00 | 0.00 | 49 | 1004.1 |
| 20260509161421 | 30 | 248 | 4.8 | 4.8 | 0.00 | 0.00 | 0.00 | 49 | 1004.1 |
| 20260509160922 | 30 | 248 | 4.8 | 6.4 | 0.00 | 0.00 | 0.00 | 48 | 1004.1 |
| 20260509160422 | 31 | 203 | 1.6 | 3.2 | 0.00 | 0.00 | 0.00 | 49 | 1004.1 |
| 20260509155921 | 30 | 203 | 3.2 | 3.2 | 0.00 | 0.00 | 0.00 | 50 | 1004.1 |
| 20260509155421 | 30 | 225 | 1.6 | 3.2 | 0.00 | 0.00 | 0.00 | 52 | 1003.7 |
| 20260509154921 | 28 | 203 | 3.2 | 3.2 | 0.00 | 0.00 | 0.00 | 52 | 1004.1 |
| 20260509154421 | 28 | 225 | 1.6 | 3.2 | 0.00 | 0.00 | 0.00 | 53 | 1003.7 |
| 20260509153921 | 27 | 248 | 8.0 | 9.7 | 0.00 | 0.00 | 0.00 | 53 | 1003.7 |
| 20260509153421 | 28 | 248 | 4.8 | 8.0 | 0.00 | 0.00 | 0.00 | 54 | 1003.7 |
| 20260509152922 | 28 | 225 | 1.6 | 3.2 | 0.00 | 0.00 | 0.00 | 56 | 1003.7 |
| 20260509152422 | 28 | 248 | 1.6 | 3.2 | 0.00 | 0.00 | 0.00 | 56 | 1003.7 |
| 20260509151921 | 27 | 180 | 3.2 | 3.2 | 0.00 | 0.00 | 0.00 | 59 | 1003.4 |
| 20260509151422 | 27 | 225 | 4.8 | 6.4 | 0.00 | 0.00 | 0.00 | 60 | 1003.4 |
| 20260509150922 | 27 | 248 | 6.4 | 9.7 | 0.00 | 0.00 | 0.00 | 61 | 1003.4 |
| 20260509150421 | 27 | 248 | 8.0 | 9.7 | 0.00 | 0.00 | 0.00 | 62 | 1003.7 |
| 20260509145922 | 26 | 225 | 8.0 | 9.7 | 0.00 | 0.00 | 0.00 | 60 | 1003.7 |
| 20260509145421 | 26 | 248 | 4.8 | 8.0 | 0.00 | 0.00 | 0.00 | 64 | 1003.7 |
| 20260509144921 | 26 | 248 | 4.8 | 8.0 | 0.00 | 0.00 | 0.00 | 65 | 1003.4 |
| 20260509144421 | 25 | 248 | 4.8 | 6.4 | 0.00 | 0.00 | 0.00 | 65 | 1003.7 |
| 20260509143921 | 25 | 225 | 4.8 | 8.0 | 0.00 | 0.00 | 0.00 | 67 | 1003.7 |
| 20260509143422 | 25 | 225 | 4.8 | 4.8 | 0.00 | 0.00 | 0.00 | 71 | 1003.7 |
| 20260509142924 | 24 | 248 | 6.4 | 9.7 | 0.00 | 0.00 | 0.00 | 71 | 1003.7 |
| 20260509142022 | 23 | 203 | 3.2 | 4.8 | 0.00 | 0.00 | 0.00 | 77 | 1003.7 |
| 20260509141421 | 23 | 270 | 9.7 | 14.5 | 0.00 | 0.00 | 0.00 | 78 | 1003.7 |
| 20260509140921 | 22 | 270 | 8.0 | 11.3 | 0.00 | 0.00 | 0.00 | 79 | 1003.7 |
| 20260509140422 | 22 | 248 | 4.8 | 8.0 | 0.00 | 0.00 | 0.00 | 82 | 1003.7 |
| 20260509135921 | 22 | 248 | 4.8 | 8.0 | 0.00 | 0.00 | 0.00 | 81 | 1003.7 |
| 20260509135421 | 22 | 225 | 3.2 | 4.8 | 0.00 | 0.00 | 0.00 | 82 | 1003.7 |
| 20260509134921 | 22 | 270 | 3.2 | 3.2 | 0.00 | 0.00 | 0.00 | 81 | 1003.4 |
| 20260509134421 | 22 | 248 | 8.0 | 9.7 | 0.00 | 0.00 | 0.00 | 83 | 1003.7 |
| 20260509133921 | 22 | 270 | 11.3 | 17.7 | 0.00 | 0.00 | 0.00 | 81 | 1003.7 |
| 20260509133422 | 21 | 180 | 4.8 | 6.4 | 0.00 | 0.00 | 0.00 | 82 | 1003.7 |
| 20260509132921 | 21 | 248 | 8.0 | 8.0 | 0.00 | 0.00 | 0.00 | 82 | 1003.7 |
| 20260509132421 | 21 | 270 | 4.8 | 8.0 | 0.00 | 0.00 | 0.00 | 83 | 1003.4 |
| 20260509131921 | 21 | 270 | 4.8 | 4.8 | 0.00 | 0.00 | 0.00 | 82 | 1003.4 |
| 20260509131422 | 21 | 248 | 8.0 | 12.9 | 0.00 | 0.00 | 0.00 | 82 | 1003.4 |
| 20260509130921 | 21 | 225 | 3.2 | 4.8 | 0.00 | 0.00 | 0.00 | 84 | 1003.4 |
| 20260509130421 | 21 | 225 | 4.8 | 8.0 | 0.00 | 0.00 | 0.00 | 84 | 1003.4 |
| 20260509125921 | 21 | 270 | 4.8 | 6.4 | 0.00 | 0.00 | 0.00 | 84 | 1003.0 |
| 20260509125422 | 21 | 270 | 9.7 | 16.1 | 0.00 | 0.00 | 0.00 | 84 | 1003.4 |
| 20260509124922 | 21 | 270 | 4.8 | 6.4 | 0.00 | 0.00 | 0.00 | 84 | 1003.4 |
| 20260509124422 | 20 | 270 | 1.6 | 3.2 | 0.00 | 0.00 | 0.00 | 85 | 1003.0 |
| 20260509123921 | 20 | 248 | 4.8 | 6.4 | 0.00 | 0.00 | 0.00 | 84 | 1003.0 |
| 20260509123421 | 20 | 270 | 4.8 | 4.8 | 0.00 | 0.00 | 0.00 | 83 | 1003.4 |
| 20260509122921 | 20 | 248 | 1.6 | 3.2 | 0.00 | 0.00 | 0.00 | 86 | 1003.0 |
| 20260509122421 | 19 | 203 | 0.0 | 0.0 | 0.00 | 0.00 | 0.00 | 88 | 1003.0 |
| 20260509121922 | 18 | 203 | 3.2 | 3.2 | 0.00 | 0.00 | 0.00 | 92 | 1003.0 |
| 20260509121422 | 18 | 203 | 0.0 | 0.0 | 0.00 | 0.00 | 0.00 | 94 | 1003.0 |
| 20260509120921 | 17 | 203 | 0.0 | 0.0 | 0.00 | 0.00 | 0.00 | 93 | 1003.0 |
| 20260509120422 | 18 | 203 | 0.0 | 0.0 | 0.00 | 0.00 | 0.00 | 93 | 1003.0 |
| 20260509115927 | 18 | 203 | 1.6 | 1.6 | 0.00 | 0.00 | 0.00 | 93 | 1003.0 |
| 20260509115422 | 18 | 248 | 0.0 | 0.0 | 0.00 | 0.00 | 0.00 | 92 | 1003.0 |
| 20260509114921 | 18 | 225 | 0.0 | 1.6 | 0.00 | 0.00 | 0.00 | 91 | 1003.0 |
| 20260509114421 | 18 | 203 | 4.8 | 4.8 | 0.00 | 0.00 | 0.00 | 90 | 1003.4 |
| 20260509113924 | 18 | 203 | 4.8 | 4.8 | 0.00 | 0.00 | 0.00 | 89 | 1003.0 |
| 20260509113421 | 19 | 225 | 1.6 | 3.2 | 0.00 | 0.00 | 0.00 | 87 | 1003.0 |
| 20260509112921 | 19 | 203 | 4.8 | 4.8 | 0.00 | 0.00 | 0.00 | 86 | 1003.0 |
| 20260509112421 | 20 | 203 | 3.2 | 4.8 | 0.00 | 0.00 | 0.00 | 85 | 1002.7 |
| 20260509111922 | 20 | 248 | 0.0 | 0.0 | 0.00 | 0.00 | 0.00 | 82 | 1003.0 |
| 20260509111421 | 20 | 270 | 3.2 | 3.2 | 0.00 | 0.00 | 0.00 | 81 | 1002.7 |
| 20260509110922 | 20 | 270 | 3.2 | 4.8 | 0.00 | 0.00 | 0.00 | 81 | 1002.7 |
| 20260509110422 | 21 | 203 | 1.6 | 3.2 | 0.00 | 0.00 | 0.00 | 83 | 1003.0 |
| 20260509105921 | 21 | 270 | 11.3 | 16.1 | 0.00 | 0.00 | 0.00 | 84 | 1003.0 |
| 20260509105422 | 21 | 270 | 4.8 | 9.7 | 0.00 | 0.00 | 0.00 | 91 | 1002.7 |
| 20260509104921 | 21 | 270 | 4.8 | 4.8 | 0.00 | 0.00 | 0.00 | 93 | 1002.7 |
| 20260509104421 | 21 | 248 | 3.2 | 3.2 | 0.00 | 0.00 | 0.00 | 93 | 1003.0 |
| 20260509103922 | 21 | 270 | 6.4 | 11.3 | 0.00 | 0.00 | 0.00 | 94 | 1002.7 |
| 20260509103421 | 21 | 248 | 4.8 | 9.7 | 0.00 | 0.00 | 0.00 | 94 | 1002.7 |
| 20260509102922 | 21 | 270 | 8.0 | 12.9 | 0.00 | 0.00 | 0.00 | 95 | 1002.7 |
| 20260509102421 | 21 | 270 | 4.8 | 8.0 | 0.00 | 0.00 | 0.00 | 95 | 1002.7 |
| 20260509101923 | 21 | 248 | 1.6 | 3.2 | 0.00 | 0.00 | 0.00 | 96 | 1002.4 |
| 20260509101422 | 20 | 270 | 4.8 | 6.4 | 0.00 | 0.00 | 0.00 | 95 | 1001.4 |
| 20260509100923 | 21 | 248 | 3.2 | 4.8 | 0.00 | 0.00 | 0.00 | 95 | 1001.0 |
| 20260509100422 | 21 | 203 | 3.2 | 6.4 | 0.00 | 0.00 | 0.00 | 95 | 1000.7 |
| 20260509095921 | 21 | 203 | 4.8 | 6.4 | 0.00 | 0.00 | 0.00 | 95 | 1000.3 |
| 20260509095421 | 20 | 180 | 8.0 | 11.3 | 0.00 | 0.00 | 0.00 | 95 | 1000.3 |
| 20260509094921 | 20 | 248 | 4.8 | 6.4 | 0.00 | 0.00 | 0.00 | 95 | 1000.3 |
| 20260509094422 | 20 | 225 | 3.2 | 6.4 | 0.00 | 0.00 | 0.00 | 95 | 1000.0 |
| 20260509093922 | 20 | 203 | 8.0 | 11.3 | 0.00 | 0.00 | 0.00 | 96 | 1000.0 |
| 20260509093421 | 20 | 180 | 12.9 | 19.3 | 0.00 | 0.00 | 0.00 | 96 | 999.7 |
| 20260509092921 | 20 | 270 | 6.4 | 8.0 | 0.00 | 0.00 | 0.00 | 96 | 1000.0 |
| 20260509092422 | 20 | 180 | 3.2 | 4.8 | 0.00 | 0.00 | 0.00 | 95 | 1000.3 |
| 20260509091922 | 20 | 225 | 8.0 | 16.1 | 0.00 | 0.00 | 0.00 | 96 | 1000.3 |
| 20260509091421 | 20 | 203 | 6.4 | 11.3 | 0.00 | 0.00 | 0.00 | 96 | 1000.3 |
| 20260509090923 | 20 | 203 | 8.0 | 12.9 | 0.00 | 0.00 | 0.00 | 97 | 1000.7 |
| 20260509090421 | 20 | 203 | 3.2 | 3.2 | 0.00 | 0.00 | 0.00 | 97 | 1000.7 |
| 20260509085436 | 20 | 203 | 1.6 | 3.2 | 0.00 | 0.00 | 0.00 | 97 | 1001.0 |
| 20260509084922 | 20 | 203 | 3.2 | 4.8 | 0.00 | 0.00 | 0.00 | 97 | 1001.4 |
| 20260509084421 | 20 | 225 | 4.8 | 6.4 | 0.00 | 0.00 | 0.00 | 97 | 1001.4 |
| 20260509083921 | 20 | 225 | 4.8 | 8.0 | 0.00 | 0.00 | 0.00 | 97 | 1001.4 |
| 20260509083421 | 20 | 225 | 8.0 | 9.7 | 0.00 | 0.00 | 0.00 | 97 | 1001.4 |
| 20260509082921 | 20 | 225 | 4.8 | 6.4 | 0.00 | 0.00 | 0.00 | 97 | 1001.7 |
| 20260509082421 | 20 | 203 | 3.2 | 3.2 | 0.00 | 0.00 | 0.00 | 97 | 1002.0 |
| 20260509081922 | 20 | 225 | 3.2 | 4.8 | 0.00 | 0.00 | 0.00 | 97 | 1002.0 |
| 20260509081421 | 20 | 203 | 3.2 | 3.2 | 0.00 | 0.00 | 0.00 | 97 | 1002.0 |
| 20260509080922 | 20 | 248 | 3.2 | 3.2 | 0.00 | 0.00 | 0.00 | 97 | 1002.4 |
| 20260509080421 | 20 | 203 | 3.2 | 3.2 | 0.00 | 0.00 | 0.00 | 97 | 1002.4 |
| 20260509075922 | 20 | 203 | 3.2 | 8.0 | 0.00 | 0.00 | 0.00 | 97 | 1002.7 |
| 20260509075421 | 20 | 180 | 3.2 | 3.2 | 0.00 | 0.00 | 0.00 | 97 | 1003.0 |
| 20260509074922 | 20 | 225 | 3.2 | 4.8 | 0.00 | 0.00 | 0.00 | 96 | 1003.7 |
| 20260509074424 | 20 | 180 | 3.2 | 3.2 | 0.00 | 0.00 | 0.00 | 96 | 1003.7 |
| 20260509073921 | 20 | 180 | 3.2 | 3.2 | 0.00 | 0.00 | 0.00 | 96 | 1004.1 |
| 20260509073422 | 20 | 203 | 4.8 | 8.0 | 0.00 | 0.00 | 0.00 | 96 | 1004.1 |
| 20260509072923 | 20 | 225 | 4.8 | 6.4 | 0.00 | 0.00 | 0.00 | 97 | 1005.1 |
| 20260509072421 | 20 | 270 | 4.8 | 6.4 | 0.00 | 0.00 | 0.00 | 97 | 1005.1 |
| 20260509071922 | 20 | 203 | 9.7 | 14.5 | 0.00 | 0.00 | 0.00 | 98 | 1004.7 |
| 20260509071422 | 20 | 225 | 3.2 | 6.4 | 0.00 | 0.00 | 0.00 | 98 | 1004.7 |
| 20260509070921 | 19 | 270 | 3.2 | 4.8 | 0.00 | 0.00 | 0.00 | 98 | 1004.7 |
| 20260509070422 | 19 | 270 | 3.2 | 4.8 | 0.00 | 0.00 | 0.00 | 98 | 1004.7 |
| 20260509065921 | 19 | 270 | 3.2 | 4.8 | 0.00 | 0.00 | 0.00 | 98 | 1004.4 |
| 20260509065421 | 19 | 203 | 1.6 | 3.2 | 0.00 | 0.00 | 0.00 | 98 | 1005.1 |
| 20260509064922 | 19 | 270 | 0.0 | 0.0 | 0.00 | 0.00 | 0.00 | 98 | 1004.7 |
| 20260509064421 | 19 | 270 | 1.6 | 3.2 | 0.00 | 0.00 | 0.00 | 99 | 1005.1 |
| 20260509063921 | 19 | 248 | 4.8 | 4.8 | 0.00 | 0.00 | 0.00 | 99 | 1004.7 |
| 20260509063421 | 19 | 248 | 4.8 | 4.8 | 0.00 | 0.00 | 0.00 | 99 | 1004.7 |
| 20260509062921 | 19 | 270 | 0.0 | 0.0 | 0.00 | 0.00 | 0.00 | 99 | 1004.4 |
| 20260509062421 | 19 | 248 | 4.8 | 4.8 | 0.00 | 0.00 | 0.00 | 99 | 1004.1 |
| 20260509061921 | 18 | 270 | 3.2 | 3.2 | 0.00 | 0.00 | 0.00 | 99 | 1004.4 |
| 20260509061422 | 18 | 270 | 1.6 | 3.2 | 0.00 | 0.00 | 0.00 | 99 | 1004.4 |
| 20260509060924 | 18 | 270 | 1.6 | 3.2 | 0.00 | 0.00 | 0.00 | 98 | 1004.1 |
| 20260509060421 | 18 | 203 | 0.0 | 0.0 | 0.00 | 0.00 | 0.00 | 98 | 1004.1 |
| 20260509055922 | 18 | 203 | 0.0 | 1.6 | 0.00 | 0.00 | 0.00 | 98 | 1003.7 |
| 20260509055421 | 18 | 270 | 0.0 | 0.0 | 0.00 | 0.00 | 0.00 | 98 | 1003.7 |
| 20260509054921 | 18 | 270 | 1.6 | 3.2 | 0.00 | 0.00 | 0.00 | 98 | 1003.4 |
| 20260509054422 | 18 | 270 | 1.6 | 3.2 | 0.00 | 0.00 | 0.00 | 98 | 1003.0 |
| 20260509053922 | 18 | 270 | 0.0 | 0.0 | 0.00 | 0.00 | 0.00 | 98 | 1003.4 |
| 20260509053422 | 18 | 270 | 0.0 | 0.0 | 0.00 | 0.00 | 0.00 | 98 | 1003.4 |
| 20260509052921 | 18 | 270 | 0.0 | 0.0 | 0.00 | 0.00 | 0.00 | 97 | 1003.4 |
| 20260509052421 | 18 | 270 | 0.0 | 0.0 | 0.00 | 0.00 | 0.00 | 97 | 1003.4 |
| 20260509051921 | 19 | 270 | 0.0 | 1.6 | 0.00 | 0.00 | 0.00 | 97 | 1003.4 |
| 20260509051421 | 19 | 270 | 0.0 | 0.0 | 0.00 | 0.00 | 0.00 | 97 | 1003.4 |
| 20260509050921 | 19 | 270 | 0.0 | 0.0 | 0.00 | 0.00 | 0.00 | 97 | 1003.4 |
| 20260509050422 | 19 | 248 | 0.0 | 0.0 | 0.00 | 0.00 | 0.00 | 97 | 1003.0 |
| 20260509045921 | 19 | 203 | 1.6 | 3.2 | 0.00 | 0.00 | 0.03 | 97 | 1003.4 |
| 20260509045422 | 19 | 203 | 0.0 | 0.0 | 0.00 | 0.00 | 0.03 | 96 | 1003.7 |
| 20260509044922 | 19 | 203 | 3.2 | 3.2 | 0.00 | 0.00 | 0.03 | 96 | 1003.7 |
| 20260509044421 | 20 | 203 | 1.6 | 3.2 | 0.00 | 0.00 | 0.03 | 96 | 1003.7 |
| 20260509043922 | 20 | 248 | 0.0 | 0.0 | 0.00 | 0.00 | 0.03 | 95 | 1003.7 |
| 20260509043421 | 20 | 248 | 0.0 | 0.0 | 0.00 | 0.00 | 0.03 | 94 | 1003.7 |
| 20260509042925 | 20 | 270 | 0.0 | 1.6 | 0.00 | 0.00 | 0.03 | 94 | 1003.7 |
| 20260509042421 | 20 | 248 | 0.0 | 0.0 | 0.00 | 0.00 | 0.03 | 94 | 1003.7 |
| 20260509041921 | 20 | 270 | 0.0 | 1.6 | 0.00 | 0.00 | 0.03 | 94 | 1003.0 |
| 20260509041421 | 20 | 203 | 4.8 | 6.4 | 0.00 | 0.00 | 0.03 | 94 | 1003.0 |
| 20260509040922 | 20 | 270 | 1.6 | 3.2 | 0.00 | 0.00 | 0.03 | 93 | 1003.0 |
| 20260509040421 | 21 | 225 | 4.8 | 6.4 | 0.00 | 0.00 | 0.03 | 93 | 1002.7 |
| 20260509035921 | 21 | 180 | 3.2 | 4.8 | 0.00 | 0.00 | 0.03 | 93 | 1003.0 |
| 20260509035422 | 21 | 203 | 1.6 | 3.2 | 0.00 | 0.00 | 0.03 | 92 | 1003.0 |
| 20260509034921 | 21 | 248 | 1.6 | 1.6 | 0.00 | 0.00 | 0.03 | 92 | 1003.0 |
| 20260509034422 | 21 | 248 | 1.6 | 3.2 | 0.00 | 0.00 | 0.03 | 91 | 1003.0 |
| 20260509033921 | 21 | 203 | 3.2 | 3.2 | 0.00 | 0.00 | 0.03 | 91 | 1003.0 |
| 20260509033421 | 21 | 248 | 0.0 | 1.6 | 0.00 | 0.00 | 0.03 | 91 | 1003.0 |
| 20260509032924 | 21 | 270 | 3.2 | 4.8 | 0.00 | 0.00 | 0.03 | 91 | 1002.7 |
| 20260509032421 | 21 | 180 | 3.2 | 3.2 | 0.00 | 0.00 | 0.03 | 90 | 1002.7 |
| 20260509031924 | 21 | 270 | 1.6 | 3.2 | 0.00 | 0.00 | 0.03 | 90 | 1002.7 |
| 20260509031423 | 21 | 203 | 3.2 | 4.8 | 0.00 | 0.00 | 0.03 | 90 | 1002.7 |
| 20260509030921 | 21 | 180 | 1.6 | 3.2 | 0.00 | 0.00 | 0.03 | 90 | 1002.7 |
| 20260509030422 | 21 | 180 | 6.4 | 8.0 | 0.00 | 0.00 | 0.03 | 90 | 1002.4 |
| 20260509025921 | 21 | 180 | 3.2 | 6.4 | 0.00 | 0.00 | 0.03 | 90 | 1002.4 |
| 20260509025421 | 21 | 225 | 3.2 | 4.8 | 0.00 | 0.00 | 0.03 | 89 | 1002.4 |
| 20260509024921 | 22 | 225 | 1.6 | 3.2 | 0.00 | 0.00 | 0.03 | 89 | 1002.4 |
| 20260509024421 | 22 | 180 | 3.2 | 4.8 | 0.00 | 0.00 | 0.03 | 89 | 1002.4 |
| 20260509023921 | 22 | 203 | 0.0 | 0.0 | 0.00 | 0.00 | 0.03 | 89 | 1002.4 |
| 20260509023422 | 22 | 180 | 1.6 | 3.2 | 0.00 | 0.00 | 0.03 | 89 | 1002.4 |
| 20260509022921 | 22 | 203 | 1.6 | 3.2 | 0.00 | 0.00 | 0.03 | 89 | 1002.4 |
| 20260509022421 | 22 | 225 | 1.6 | 3.2 | 0.00 | 0.00 | 0.03 | 89 | 1002.4 |
| 20260509021921 | 22 | 248 | 0.0 | 1.6 | 0.00 | 0.00 | 0.03 | 89 | 1002.4 |
| 20260509021421 | 22 | 180 | 0.0 | 1.6 | 0.00 | 0.00 | 0.03 | 89 | 1002.4 |
| 20260509020923 | 22 | 203 | 0.0 | 0.0 | 0.00 | 0.00 | 0.03 | 89 | 1002.4 |
| 20260509020421 | 22 | 203 | 0.0 | 0.0 | 0.00 | 0.00 | 0.03 | 88 | 1002.4 |
| 20260509015922 | 22 | 203 | 0.0 | 0.0 | 0.00 | 0.00 | 0.03 | 88 | 1002.4 |
| 20260509015422 | 22 | 225 | 0.0 | 1.6 | 0.00 | 0.00 | 0.03 | 88 | 1002.0 |
| 20260509014921 | 22 | 248 | 0.0 | 1.6 | 0.00 | 0.00 | 0.03 | 87 | 1002.4 |
| 20260509014422 | 22 | 248 | 0.0 | 0.0 | 0.00 | 0.00 | 0.03 | 88 | 1002.0 |
| 20260509013921 | 22 | 248 | 0.0 | 0.0 | 0.00 | 0.00 | 0.03 | 87 | 1002.0 |
| 20260509013421 | 22 | 248 | 0.0 | 0.0 | 0.00 | 0.00 | 0.03 | 87 | 1002.4 |
| 20260509012921 | 22 | 225 | 1.6 | 3.2 | 0.00 | 0.00 | 0.03 | 87 | 1002.0 |
| 20260509012422 | 22 | 180 | 0.0 | 1.6 | 0.00 | 0.00 | 0.03 | 87 | 1002.0 |
| 20260509011922 | 22 | 203 | 6.4 | 8.0 | 0.00 | 0.00 | 0.03 | 86 | 1002.0 |
| 20260509011421 | 22 | 203 | 0.0 | 0.0 | 0.00 | 0.00 | 0.03 | 85 | 1001.7 |
| 20260509010921 | 22 | 203 | 1.6 | 3.2 | 0.00 | 0.00 | 0.03 | 85 | 1001.7 |
| 20260509010421 | 22 | 248 | 0.0 | 1.6 | 0.00 | 0.00 | 0.03 | 85 | 1001.7 |
| 20260509005922 | 23 | 203 | 1.6 | 3.2 | 0.00 | 0.00 | 0.03 | 84 | 1001.7 |
| 20260509005422 | 23 | 180 | 0.0 | 1.6 | 0.00 | 0.00 | 0.03 | 84 | 1001.7 |
| 20260509004921 | 23 | 203 | 1.6 | 3.2 | 0.00 | 0.00 | 0.03 | 84 | 1001.4 |
| 20260509004422 | 23 | 225 | 0.0 | 1.6 | 0.00 | 0.00 | 0.03 | 84 | 1001.4 |
| 20260509003921 | 23 | 225 | 3.2 | 4.8 | 0.00 | 0.00 | 0.03 | 83 | 1001.7 |
| 20260509003423 | 23 | 203 | 1.6 | 3.2 | 0.00 | 0.00 | 0.03 | 83 | 1001.7 |
| 20260509002922 | 23 | 225 | 1.6 | 1.6 | 0.00 | 0.00 | 0.03 | 82 | 1001.7 |
| 20260509002421 | 23 | 270 | 0.0 | 1.6 | 0.00 | 0.00 | 0.03 | 81 | 1001.7 |
| 20260509001922 | 24 | 225 | 0.0 | 1.6 | 0.00 | 0.00 | 0.03 | 81 | 1001.7 |
| 20260509001421 | 24 | 248 | 0.0 | 0.0 | 0.00 | 0.00 | 0.03 | 81 | 1001.7 |
| 20260509000921 | 24 | 203 | 1.6 | 3.2 | 0.00 | 0.00 | 0.03 | 81 | 1001.7 |
| 20260509000421 | 24 | 225 | 1.6 | 3.2 | 0.00 | 0.00 | 0.03 | 80 | 1001.7 |
| 20260508235921 | 24 | 248 | 1.6 | 3.2 | 0.00 | 0.00 | 0.03 | 80 | 1001.7 |
| 20260508235422 | 25 | 225 | 0.0 | 1.6 | 0.00 | 0.00 | 0.03 | 78 | 1001.4 |
| 20260508234921 | 24 | 225 | 1.6 | 3.2 | 0.00 | 0.00 | 0.03 | 78 | 1001.7 |
| 20260508234421 | 25 | 270 | 0.0 | 1.6 | 0.00 | 0.00 | 0.03 | 78 | 1001.4 |
| 20260508233921 | 25 | 180 | 1.6 | 3.2 | 0.00 | 0.00 | 0.03 | 79 | 1001.4 |
| 20260508233421 | 25 | 203 | 1.6 | 3.2 | 0.00 | 0.00 | 0.03 | 77 | 1001.4 |
| 20260508232921 | 25 | 203 | 4.8 | 8.0 | 0.00 | 0.00 | 0.03 | 75 | 1001.4 |
| 20260508232421 | 25 | 225 | 3.2 | 3.2 | 0.00 | 0.00 | 0.03 | 75 | 1001.7 |
| 20260508231921 | 25 | 248 | 0.0 | 1.6 | 0.00 | 0.00 | 0.03 | 75 | 1001.7 |
| 20260508231421 | 25 | 203 | 4.8 | 6.4 | 0.00 | 0.00 | 0.03 | 74 | 1001.4 |
| 20260508230922 | 25 | 180 | 6.4 | 8.0 | 0.00 | 0.00 | 0.03 | 74 | 1001.7 |
| 20260508230421 | 25 | 180 | 4.8 | 6.4 | 0.00 | 0.00 | 0.03 | 74 | 1001.7 |
| 20260508225921 | 25 | 203 | 3.2 | 3.2 | 0.00 | 0.00 | 0.03 | 75 | 1001.4 |
| 20260508225421 | 25 | 225 | 3.2 | 4.8 | 0.00 | 0.00 | 0.03 | 75 | 1001.7 |
| 20260508224921 | 24 | 203 | 8.0 | 11.3 | 0.00 | 0.00 | 0.03 | 76 | 1001.7 |
| 20260508224421 | 24 | 203 | 6.4 | 8.0 | 0.00 | 0.00 | 0.03 | 75 | 1001.7 |
| 20260508223922 | 25 | 248 | 3.2 | 3.2 | 0.00 | 0.00 | 0.03 | 74 | 1001.7 |
| 20260508223422 | 25 | 203 | 4.8 | 6.4 | 0.00 | 0.00 | 0.03 | 74 | 1001.7 |
| 20260508222923 | 25 | 225 | 3.2 | 3.2 | 0.00 | 0.00 | 0.03 | 74 | 1001.7 |
| 20260508222421 | 25 | 180 | 3.2 | 4.8 | 0.00 | 0.00 | 0.03 | 72 | 1001.7 |
| 20260508221921 | 26 | 248 | 3.2 | 3.2 | 0.00 | 0.00 | 0.03 | 71 | 1001.7 |
| 20260508221422 | 26 | 225 | 3.2 | 6.4 | 0.00 | 0.00 | 0.03 | 72 | 1001.7 |
| 20260508220921 | 25 | 225 | 0.0 | 1.6 | 0.00 | 0.00 | 0.03 | 73 | 1002.0 |
| 20260508220421 | 25 | 203 | 3.2 | 4.8 | 0.00 | 0.00 | 0.03 | 73 | 1002.0 |
| 20260508215922 | 25 | 180 | 3.2 | 4.8 | 0.00 | 0.00 | 0.03 | 73 | 1002.0 |
| 20260508215421 | 24 | 203 | 1.6 | 3.2 | 0.00 | 0.00 | 0.03 | 74 | 1002.4 |
| 20260508214921 | 24 | 248 | 1.6 | 3.2 | 0.00 | 0.00 | 0.03 | 75 | 1002.4 |
| 20260508214422 | 23 | 248 | 0.0 | 1.6 | 0.00 | 0.00 | 0.03 | 76 | 1002.4 |
| 20260508213921 | 23 | 203 | 6.4 | 9.7 | 0.00 | 0.00 | 0.03 | 75 | 1002.4 |
| 20260508213423 | 23 | 248 | 1.6 | 3.2 | 0.00 | 0.00 | 0.03 | 76 | 1002.4 |
| 20260508212922 | 23 | 203 | 4.8 | 6.4 | 0.00 | 0.00 | 0.03 | 76 | 1002.7 |
| 20260508212421 | 23 | 248 | 6.4 | 6.4 | 0.00 | 0.00 | 0.03 | 77 | 1002.7 |
| 20260508211921 | 23 | 203 | 4.8 | 6.4 | 0.00 | 0.00 | 0.03 | 75 | 1002.7 |
| 20260508211422 | 22 | 203 | 4.8 | 6.4 | 0.00 | 0.00 | 0.03 | 76 | 1002.7 |
| 20260508210921 | 22 | 248 | 1.6 | 3.2 | 0.00 | 0.00 | 0.03 | 77 | 1003.0 |
| 20260508210421 | 22 | 180 | 4.8 | 4.8 | 0.00 | 0.00 | 0.03 | 77 | 1003.0 |
| 20260508205922 | 22 | 180 | 3.2 | 3.2 | 0.00 | 0.00 | 0.03 | 79 | 1003.0 |
| 20260508205421 | 22 | 203 | 1.6 | 3.2 | 0.00 | 0.00 | 0.03 | 81 | 1003.0 |
| 20260508204921 | 21 | 248 | 4.8 | 8.0 | 0.00 | 0.00 | 0.03 | 81 | 1002.7 |
| 20260508204423 | 21 | 248 | 4.8 | 6.4 | 0.00 | 0.00 | 0.03 | 82 | 1002.4 |
| 20260508203922 | 21 | 248 | 14.5 | 19.3 | 0.00 | 0.00 | 0.03 | 82 | 1002.4 |
| 20260508203421 | 21 | 203 | 8.0 | 12.9 | 0.00 | 0.00 | 0.03 | 86 | 1002.4 |
| 20260508202922 | 20 | 248 | 6.4 | 8.0 | 0.00 | 0.00 | 0.03 | 90 | 1002.4 |
| 20260508202421 | 20 | 180 | 6.4 | 8.0 | 0.00 | 0.00 | 0.03 | 91 | 1002.7 |
| 20260508201921 | 20 | 270 | 1.6 | 3.2 | 0.00 | 0.00 | 0.03 | 90 | 1002.7 |